Terminal Aerodrome Forecast
Issued by NWS

Home | Current Version | Previous Version | Text Only | Print | Product List | Glossary On
Versions: 1 2 3 4 5 6 7 8 9 10 11 12 13 14
000
FTAK31 PAFA 171740
TAFAGA
TAF
PAGA 171740Z 1718/1818 VRB04KT P6SM -SN SCT004 BKN025 OVC035
     FM172100 28004KT 6SM -SN BR BKN015 OVC025
     FM180300 27004KT 6SM -SN BR BKN025 BKN035 OVC050
     FM180900 28005KT P6SM OVC025=

USA.gov is the U.S. government's official web portal to all federal, state and local government web resources and services.